sensor_id;sensor_type;location;lat;lon;timestamp;P1;durP1;ratioP1;P2;durP2;ratioP2
36373;SDS011;22399;51.346;12.372;2024-03-06T00:00:53;19.50;;;6.25;;
36373;SDS011;22399;51.346;12.372;2024-03-06T00:03:22;37.72;;;9.32;;
36373;SDS011;22399;51.346;12.372;2024-03-06T00:05:51;25.40;;;7.85;;
36373;SDS011;22399;51.346;12.372;2024-03-06T00:08:19;25.48;;;8.93;;
36373;SDS011;22399;51.346;12.372;2024-03-06T00:10:49;20.55;;;6.10;;
36373;SDS011;22399;51.346;12.372;2024-03-06T00:13:17;20.65;;;8.52;;
36373;SDS011;22399;51.346;12.372;2024-03-06T00:15:47;21.63;;;7.80;;
36373;SDS011;22399;51.346;12.372;2024-03-06T00:18:15;30.17;;;8.20;;
36373;SDS011;22399;51.346;12.372;2024-03-06T00:20:43;28.02;;;8.63;;
36373;SDS011;22399;51.346;12.372;2024-03-06T00:23:12;17.20;;;7.35;;
36373;SDS011;22399;51.346;12.372;2024-03-06T00:25:40;23.40;;;7.55;;
36373;SDS011;22399;51.346;12.372;2024-03-06T00:28:10;29.20;;;7.78;;
36373;SDS011;22399;51.346;12.372;2024-03-06T00:30:38;28.20;;;8.57;;
36373;SDS011;22399;51.346;12.372;2024-03-06T00:33:07;23.52;;;9.00;;
36373;SDS011;22399;51.346;12.372;2024-03-06T00:35:35;34.47;;;8.32;;
36373;SDS011;22399;51.346;12.372;2024-03-06T00:38:03;23.70;;;6.68;;
36373;SDS011;22399;51.346;12.372;2024-03-06T00:40:32;25.33;;;7.60;;
36373;SDS011;22399;51.346;12.372;2024-03-06T00:43:01;27.25;;;7.50;;
36373;SDS011;22399;51.346;12.372;2024-03-06T00:45:31;32.85;;;9.13;;
36373;SDS011;22399;51.346;12.372;2024-03-06T00:47:59;22.17;;;6.93;;
36373;SDS011;22399;51.346;12.372;2024-03-06T00:50:27;15.98;;;6.70;;
36373;SDS011;22399;51.346;12.372;2024-03-06T00:52:56;31.00;;;7.43;;
36373;SDS011;22399;51.346;12.372;2024-03-06T00:55:24;25.17;;;7.15;;
36373;SDS011;22399;51.346;12.372;2024-03-06T00:57:52;26.42;;;8.13;;
36373;SDS011;22399;51.346;12.372;2024-03-06T01:00:21;20.45;;;6.50;;
36373;SDS011;22399;51.346;12.372;2024-03-06T01:02:50;18.20;;;6.78;;
36373;SDS011;22399;51.346;12.372;2024-03-06T01:05:19;20.42;;;6.65;;
36373;SDS011;22399;51.346;12.372;2024-03-06T01:07:47;20.25;;;7.25;;
36373;SDS011;22399;51.346;12.372;2024-03-06T01:10:16;17.02;;;7.05;;
36373;SDS011;22399;51.346;12.372;2024-03-06T01:12:45;22.38;;;6.82;;
36373;SDS011;22399;51.346;12.372;2024-03-06T01:15:13;28.88;;;7.55;;
36373;SDS011;22399;51.346;12.372;2024-03-06T01:17:41;26.55;;;7.28;;
36373;SDS011;22399;51.346;12.372;2024-03-06T01:20:11;26.08;;;7.70;;
36373;SDS011;22399;51.346;12.372;2024-03-06T01:22:40;20.73;;;7.50;;
36373;SDS011;22399;51.346;12.372;2024-03-06T01:25:09;22.38;;;7.93;;
36373;SDS011;22399;51.346;12.372;2024-03-06T01:27:37;38.97;;;7.90;;
36373;SDS011;22399;51.346;12.372;2024-03-06T01:30:06;19.15;;;7.75;;
36373;SDS011;22399;51.346;12.372;2024-03-06T01:32:35;35.72;;;7.35;;
36373;SDS011;22399;51.346;12.372;2024-03-06T01:35:04;32.53;;;8.27;;
36373;SDS011;22399;51.346;12.372;2024-03-06T01:37:35;24.38;;;8.90;;
36373;SDS011;22399;51.346;12.372;2024-03-06T01:40:05;20.65;;;7.38;;
36373;SDS011;22399;51.346;12.372;2024-03-06T01:42:35;27.10;;;8.65;;
36373;SDS011;22399;51.346;12.372;2024-03-06T01:45:04;24.58;;;8.48;;
36373;SDS011;22399;51.346;12.372;2024-03-06T01:47:33;28.67;;;9.73;;
36373;SDS011;22399;51.346;12.372;2024-03-06T01:50:02;22.13;;;7.43;;
36373;SDS011;22399;51.346;12.372;2024-03-06T01:52:37;20.55;;;8.40;;
36373;SDS011;22399;51.346;12.372;2024-03-06T01:55:09;33.75;;;10.90;;
36373;SDS011;22399;51.346;12.372;2024-03-06T01:57:37;33.90;;;10.27;;
36373;SDS011;22399;51.346;12.372;2024-03-06T02:00:08;29.30;;;8.02;;
36373;SDS011;22399;51.346;12.372;2024-03-06T02:02:41;24.77;;;9.65;;
36373;SDS011;22399;51.346;12.372;2024-03-06T02:05:10;25.10;;;8.45;;
36373;SDS011;22399;51.346;12.372;2024-03-06T02:07:40;27.63;;;9.90;;
36373;SDS011;22399;51.346;12.372;2024-03-06T02:10:10;33.25;;;8.77;;
36373;SDS011;22399;51.346;12.372;2024-03-06T02:12:39;28.75;;;9.48;;
36373;SDS011;22399;51.346;12.372;2024-03-06T02:15:08;29.77;;;9.18;;
36373;SDS011;22399;51.346;12.372;2024-03-06T02:17:40;31.55;;;9.55;;
36373;SDS011;22399;51.346;12.372;2024-03-06T02:20:09;27.05;;;10.40;;
36373;SDS011;22399;51.346;12.372;2024-03-06T02:22:40;19.65;;;8.23;;
36373;SDS011;22399;51.346;12.372;2024-03-06T02:25:09;27.65;;;8.75;;
36373;SDS011;22399;51.346;12.372;2024-03-06T02:27:38;30.75;;;8.43;;
36373;SDS011;22399;51.346;12.372;2024-03-06T02:30:07;26.40;;;9.80;;
36373;SDS011;22399;51.346;12.372;2024-03-06T02:32:36;33.58;;;11.32;;
36373;SDS011;22399;51.346;12.372;2024-03-06T02:35:05;25.15;;;10.13;;
36373;SDS011;22399;51.346;12.372;2024-03-06T02:37:35;39.28;;;10.68;;
36373;SDS011;22399;51.346;12.372;2024-03-06T02:40:06;30.30;;;10.18;;
36373;SDS011;22399;51.346;12.372;2024-03-06T02:42:36;37.65;;;10.13;;
36373;SDS011;22399;51.346;12.372;2024-03-06T02:45:06;38.17;;;9.73;;
36373;SDS011;22399;51.346;12.372;2024-03-06T02:47:35;34.35;;;11.52;;
36373;SDS011;22399;51.346;12.372;2024-03-06T02:50:04;26.63;;;9.93;;
36373;SDS011;22399;51.346;12.372;2024-03-06T02:52:34;34.88;;;9.45;;
36373;SDS011;22399;51.346;12.372;2024-03-06T02:55:03;32.47;;;9.55;;
36373;SDS011;22399;51.346;12.372;2024-03-06T02:57:34;33.90;;;9.75;;
36373;SDS011;22399;51.346;12.372;2024-03-06T03:00:02;35.35;;;10.80;;
36373;SDS011;22399;51.346;12.372;2024-03-06T03:02:35;31.95;;;10.55;;
36373;SDS011;22399;51.346;12.372;2024-03-06T03:05:04;41.20;;;10.18;;
36373;SDS011;22399;51.346;12.372;2024-03-06T03:07:33;32.65;;;9.07;;
36373;SDS011;22399;51.346;12.372;2024-03-06T03:10:02;36.58;;;10.32;;
36373;SDS011;22399;51.346;12.372;2024-03-06T03:12:37;29.38;;;8.18;;
36373;SDS011;22399;51.346;12.372;2024-03-06T03:15:06;35.33;;;10.63;;
36373;SDS011;22399;51.346;12.372;2024-03-06T03:17:35;41.72;;;11.45;;
36373;SDS011;22399;51.346;12.372;2024-03-06T03:20:04;36.20;;;10.30;;
36373;SDS011;22399;51.346;12.372;2024-03-06T03:22:37;29.52;;;8.95;;
36373;SDS011;22399;51.346;12.372;2024-03-06T03:25:07;31.30;;;10.50;;
36373;SDS011;22399;51.346;12.372;2024-03-06T03:27:38;33.25;;;11.13;;
36373;SDS011;22399;51.346;12.372;2024-03-06T03:30:08;38.05;;;13.13;;
36373;SDS011;22399;51.346;12.372;2024-03-06T03:32:37;26.08;;;10.27;;
36373;SDS011;22399;51.346;12.372;2024-03-06T03:35:06;40.03;;;12.73;;
36373;SDS011;22399;51.346;12.372;2024-03-06T03:37:35;43.65;;;11.63;;
36373;SDS011;22399;51.346;12.372;2024-03-06T03:40:04;40.00;;;10.10;;
36373;SDS011;22399;51.346;12.372;2024-03-06T03:42:34;38.33;;;11.30;;
36373;SDS011;22399;51.346;12.372;2024-03-06T03:45:05;39.78;;;10.75;;
36373;SDS011;22399;51.346;12.372;2024-03-06T03:47:33;29.00;;;10.65;;
36373;SDS011;22399;51.346;12.372;2024-03-06T03:50:02;40.28;;;11.55;;
36373;SDS011;22399;51.346;12.372;2024-03-06T03:52:37;36.85;;;10.65;;
36373;SDS011;22399;51.346;12.372;2024-03-06T03:55:09;33.30;;;12.57;;
36373;SDS011;22399;51.346;12.372;2024-03-06T03:57:37;43.70;;;11.10;;
36373;SDS011;22399;51.346;12.372;2024-03-06T04:00:08;39.47;;;12.25;;
36373;SDS011;22399;51.346;12.372;2024-03-06T04:02:38;31.00;;;11.45;;
36373;SDS011;22399;51.346;12.372;2024-03-06T04:05:07;37.83;;;11.23;;
36373;SDS011;22399;51.346;12.372;2024-03-06T04:07:37;49.95;;;11.02;;
36373;SDS011;22399;51.346;12.372;2024-03-06T04:10:06;31.52;;;10.82;;
36373;SDS011;22399;51.346;12.372;2024-03-06T04:12:38;41.08;;;11.57;;
36373;SDS011;22399;51.346;12.372;2024-03-06T04:15:09;39.03;;;11.15;;
36373;SDS011;22399;51.346;12.372;2024-03-06T04:17:37;42.65;;;11.32;;
36373;SDS011;22399;51.346;12.372;2024-03-06T04:20:08;29.20;;;10.63;;
36373;SDS011;22399;51.346;12.372;2024-03-06T04:22:39;36.60;;;11.68;;
36373;SDS011;22399;51.346;12.372;2024-03-06T04:25:08;63.22;;;13.13;;
36373;SDS011;22399;51.346;12.372;2024-03-06T04:27:37;41.72;;;12.55;;
36373;SDS011;22399;51.346;12.372;2024-03-06T04:30:06;37.70;;;13.95;;
36373;SDS011;22399;51.346;12.372;2024-03-06T04:32:36;43.35;;;12.63;;
36373;SDS011;22399;51.346;12.372;2024-03-06T04:35:06;35.85;;;12.18;;
36373;SDS011;22399;51.346;12.372;2024-03-06T04:37:35;31.98;;;10.88;;
36373;SDS011;22399;51.346;12.372;2024-03-06T04:40:04;33.75;;;11.38;;
36373;SDS011;22399;51.346;12.372;2024-03-06T04:42:34;42.90;;;11.50;;
36373;SDS011;22399;51.346;12.372;2024-03-06T04:45:03;46.00;;;13.15;;
36373;SDS011;22399;51.346;12.372;2024-03-06T04:47:37;35.30;;;12.35;;
36373;SDS011;22399;51.346;12.372;2024-03-06T04:50:08;37.28;;;12.43;;
36373;SDS011;22399;51.346;12.372;2024-03-06T04:52:37;34.92;;;11.25;;
36373;SDS011;22399;51.346;12.372;2024-03-06T04:55:06;57.47;;;13.90;;
36373;SDS011;22399;51.346;12.372;2024-03-06T04:57:38;36.60;;;12.23;;
36373;SDS011;22399;51.346;12.372;2024-03-06T05:00:08;37.30;;;9.98;;
36373;SDS011;22399;51.346;12.372;2024-03-06T05:02:39;48.30;;;13.38;;
36373;SDS011;22399;51.346;12.372;2024-03-06T05:05:26;33.33;;;12.50;;
36373;SDS011;22399;51.346;12.372;2024-03-06T05:08:12;49.97;;;13.90;;
36373;SDS011;22399;51.346;12.372;2024-03-06T05:10:59;40.45;;;11.75;;
36373;SDS011;22399;51.346;12.372;2024-03-06T05:13:46;37.78;;;13.43;;
36373;SDS011;22399;51.346;12.372;2024-03-06T05:16:33;40.25;;;13.00;;
36373;SDS011;22399;51.346;12.372;2024-03-06T05:22:06;35.15;;;11.25;;
36373;SDS011;22399;51.346;12.372;2024-03-06T05:24:52;40.40;;;13.05;;
36373;SDS011;22399;51.346;12.372;2024-03-06T05:27:39;46.22;;;12.82;;
36373;SDS011;22399;51.346;12.372;2024-03-06T05:30:25;46.17;;;13.52;;
36373;SDS011;22399;51.346;12.372;2024-03-06T05:33:13;38.65;;;12.20;;
36373;SDS011;22399;51.346;12.372;2024-03-06T05:36:00;44.53;;;11.73;;
36373;SDS011;22399;51.346;12.372;2024-03-06T05:38:46;41.60;;;13.15;;
36373;SDS011;22399;51.346;12.372;2024-03-06T05:41:33;47.28;;;11.23;;
36373;SDS011;22399;51.346;12.372;2024-03-06T05:44:19;36.50;;;10.95;;
36373;SDS011;22399;51.346;12.372;2024-03-06T05:47:05;58.03;;;14.25;;
36373;SDS011;22399;51.346;12.372;2024-03-06T05:49:51;40.60;;;12.90;;
36373;SDS011;22399;51.346;12.372;2024-03-06T05:55:24;39.80;;;11.98;;
36373;SDS011;22399;51.346;12.372;2024-03-06T05:58:10;31.10;;;11.13;;
36373;SDS011;22399;51.346;12.372;2024-03-06T06:00:43;34.83;;;11.23;;
36373;SDS011;22399;51.346;12.372;2024-03-06T06:03:12;39.25;;;13.30;;
36373;SDS011;22399;51.346;12.372;2024-03-06T06:05:40;41.33;;;12.40;;
36373;SDS011;22399;51.346;12.372;2024-03-06T06:08:10;45.08;;;13.15;;
36373;SDS011;22399;51.346;12.372;2024-03-06T06:10:38;41.65;;;13.63;;
36373;SDS011;22399;51.346;12.372;2024-03-06T06:13:07;32.40;;;11.07;;
36373;SDS011;22399;51.346;12.372;2024-03-06T06:15:36;43.75;;;12.48;;
36373;SDS011;22399;51.346;12.372;2024-03-06T06:18:04;53.15;;;12.20;;
36373;SDS011;22399;51.346;12.372;2024-03-06T06:20:33;42.35;;;12.48;;
36373;SDS011;22399;51.346;12.372;2024-03-06T06:23:02;39.72;;;12.07;;
36373;SDS011;22399;51.346;12.372;2024-03-06T06:25:32;49.85;;;10.98;;
36373;SDS011;22399;51.346;12.372;2024-03-06T06:28:00;38.88;;;13.35;;
36373;SDS011;22399;51.346;12.372;2024-03-06T06:30:29;37.20;;;10.63;;
36373;SDS011;22399;51.346;12.372;2024-03-06T06:32:57;49.78;;;12.70;;
36373;SDS011;22399;51.346;12.372;2024-03-06T06:35:26;42.08;;;13.18;;
36373;SDS011;22399;51.346;12.372;2024-03-06T06:37:54;41.17;;;12.10;;
36373;SDS011;22399;51.346;12.372;2024-03-06T06:40:23;44.40;;;11.10;;
36373;SDS011;22399;51.346;12.372;2024-03-06T06:42:53;40.65;;;12.63;;
36373;SDS011;22399;51.346;12.372;2024-03-06T06:45:22;34.38;;;11.10;;
36373;SDS011;22399;51.346;12.372;2024-03-06T06:47:51;47.05;;;13.35;;
36373;SDS011;22399;51.346;12.372;2024-03-06T06:50:20;42.25;;;12.30;;
36373;SDS011;22399;51.346;12.372;2024-03-06T06:52:52;36.85;;;11.43;;
36373;SDS011;22399;51.346;12.372;2024-03-06T06:55:21;43.08;;;12.45;;
36373;SDS011;22399;51.346;12.372;2024-03-06T06:57:52;42.53;;;12.98;;
36373;SDS011;22399;51.346;12.372;2024-03-06T07:00:23;40.42;;;13.55;;
36373;SDS011;22399;51.346;12.372;2024-03-06T07:02:51;43.80;;;11.70;;
36373;SDS011;22399;51.346;12.372;2024-03-06T07:05:20;30.80;;;12.63;;
36373;SDS011;22399;51.346;12.372;2024-03-06T07:07:48;44.42;;;11.15;;
36373;SDS011;22399;51.346;12.372;2024-03-06T07:10:20;47.97;;;14.48;;
36373;SDS011;22399;51.346;12.372;2024-03-06T07:12:49;45.50;;;11.32;;
36373;SDS011;22399;51.346;12.372;2024-03-06T07:15:19;41.17;;;12.32;;
36373;SDS011;22399;51.346;12.372;2024-03-06T07:17:47;47.30;;;11.50;;
36373;SDS011;22399;51.346;12.372;2024-03-06T07:20:16;28.85;;;11.50;;
36373;SDS011;22399;51.346;12.372;2024-03-06T07:22:45;38.55;;;11.85;;
36373;SDS011;22399;51.346;12.372;2024-03-06T07:25:13;29.05;;;11.38;;
36373;SDS011;22399;51.346;12.372;2024-03-06T07:27:41;40.33;;;11.05;;
36373;SDS011;22399;51.346;12.372;2024-03-06T07:30:11;38.88;;;10.57;;
36373;SDS011;22399;51.346;12.372;2024-03-06T07:32:41;37.35;;;11.02;;
36373;SDS011;22399;51.346;12.372;2024-03-06T07:35:10;41.72;;;11.38;;
36373;SDS011;22399;51.346;12.372;2024-03-06T07:37:39;34.60;;;11.32;;
36373;SDS011;22399;51.346;12.372;2024-03-06T07:40:11;39.72;;;12.23;;
36373;SDS011;22399;51.346;12.372;2024-03-06T07:42:40;48.83;;;10.55;;
36373;SDS011;22399;51.346;12.372;2024-03-06T07:45:08;27.50;;;9.68;;
36373;SDS011;22399;51.346;12.372;2024-03-06T07:47:38;34.22;;;10.48;;
36373;SDS011;22399;51.346;12.372;2024-03-06T07:50:09;42.78;;;11.25;;
36373;SDS011;22399;51.346;12.372;2024-03-06T07:52:39;38.45;;;12.18;;
36373;SDS011;22399;51.346;12.372;2024-03-06T07:55:07;35.95;;;10.40;;
36373;SDS011;22399;51.346;12.372;2024-03-06T07:57:36;32.97;;;11.98;;
36373;SDS011;22399;51.346;12.372;2024-03-06T08:00:05;34.55;;;11.13;;
36373;SDS011;22399;51.346;12.372;2024-03-06T08:02:37;38.55;;;10.60;;
36373;SDS011;22399;51.346;12.372;2024-03-06T08:05:11;26.83;;;10.60;;
36373;SDS011;22399;51.346;12.372;2024-03-06T08:07:40;36.58;;;10.88;;
36373;SDS011;22399;51.346;12.372;2024-03-06T08:10:09;27.92;;;10.15;;
36373;SDS011;22399;51.346;12.372;2024-03-06T08:12:40;28.55;;;10.20;;
36373;SDS011;22399;51.346;12.372;2024-03-06T08:15:10;37.58;;;11.63;;
36373;SDS011;22399;51.346;12.372;2024-03-06T08:17:40;31.50;;;10.57;;
36373;SDS011;22399;51.346;12.372;2024-03-06T08:20:12;31.63;;;10.75;;
36373;SDS011;22399;51.346;12.372;2024-03-06T08:22:41;37.53;;;11.10;;
36373;SDS011;22399;51.346;12.372;2024-03-06T08:25:10;34.95;;;11.57;;
36373;SDS011;22399;51.346;12.372;2024-03-06T08:27:39;39.80;;;11.15;;
36373;SDS011;22399;51.346;12.372;2024-03-06T08:30:09;40.30;;;11.80;;
36373;SDS011;22399;51.346;12.372;2024-03-06T08:32:38;29.80;;;11.55;;
36373;SDS011;22399;51.346;12.372;2024-03-06T08:35:08;37.88;;;11.18;;
36373;SDS011;22399;51.346;12.372;2024-03-06T08:37:40;36.80;;;12.38;;
36373;SDS011;22399;51.346;12.372;2024-03-06T08:40:09;34.33;;;10.80;;
36373;SDS011;22399;51.346;12.372;2024-03-06T08:42:41;33.90;;;12.23;;
36373;SDS011;22399;51.346;12.372;2024-03-06T08:45:10;44.38;;;11.55;;
36373;SDS011;22399;51.346;12.372;2024-03-06T08:47:39;37.88;;;11.20;;
36373;SDS011;22399;51.346;12.372;2024-03-06T08:50:08;40.35;;;12.68;;
36373;SDS011;22399;51.346;12.372;2024-03-06T08:52:37;42.17;;;11.73;;
36373;SDS011;22399;51.346;12.372;2024-03-06T08:55:09;36.70;;;12.68;;
36373;SDS011;22399;51.346;12.372;2024-03-06T08:57:37;39.55;;;13.30;;
36373;SDS011;22399;51.346;12.372;2024-03-06T09:00:07;30.35;;;10.90;;
36373;SDS011;22399;51.346;12.372;2024-03-06T09:02:36;48.58;;;13.65;;
36373;SDS011;22399;51.346;12.372;2024-03-06T09:05:08;34.63;;;12.25;;
36373;SDS011;22399;51.346;12.372;2024-03-06T09:07:41;40.97;;;13.48;;
36373;SDS011;22399;51.346;12.372;2024-03-06T09:10:10;44.38;;;14.95;;
36373;SDS011;22399;51.346;12.372;2024-03-06T09:12:39;37.30;;;14.18;;
36373;SDS011;22399;51.346;12.372;2024-03-06T09:15:08;41.40;;;13.57;;
36373;SDS011;22399;51.346;12.372;2024-03-06T09:17:38;34.83;;;12.10;;
36373;SDS011;22399;51.346;12.372;2024-03-06T09:20:07;36.53;;;13.30;;
36373;SDS011;22399;51.346;12.372;2024-03-06T09:22:39;43.00;;;13.52;;
36373;SDS011;22399;51.346;12.372;2024-03-06T09:25:11;45.53;;;14.15;;
36373;SDS011;22399;51.346;12.372;2024-03-06T09:27:41;42.65;;;14.25;;
36373;SDS011;22399;51.346;12.372;2024-03-06T09:30:11;40.40;;;12.32;;
36373;SDS011;22399;51.346;12.372;2024-03-06T09:32:40;45.38;;;13.88;;
36373;SDS011;22399;51.346;12.372;2024-03-06T09:35:11;36.83;;;13.15;;
36373;SDS011;22399;51.346;12.372;2024-03-06T09:37:40;38.60;;;11.77;;
36373;SDS011;22399;51.346;12.372;2024-03-06T09:40:11;42.03;;;13.85;;
36373;SDS011;22399;51.346;12.372;2024-03-06T09:42:48;46.38;;;13.30;;
36373;SDS011;22399;51.346;12.372;2024-03-06T09:45:17;50.13;;;14.60;;
36373;SDS011;22399;51.346;12.372;2024-03-06T09:47:47;36.53;;;12.50;;
36373;SDS011;22399;51.346;12.372;2024-03-06T09:50:20;42.85;;;14.57;;
36373;SDS011;22399;51.346;12.372;2024-03-06T09:52:52;47.08;;;13.35;;
36373;SDS011;22399;51.346;12.372;2024-03-06T09:55:24;38.88;;;13.25;;
36373;SDS011;22399;51.346;12.372;2024-03-06T09:57:54;37.67;;;14.20;;
36373;SDS011;22399;51.346;12.372;2024-03-06T10:00:22;43.25;;;13.73;;
36373;SDS011;22399;51.346;12.372;2024-03-06T10:02:54;52.88;;;15.10;;
36373;SDS011;22399;51.346;12.372;2024-03-06T10:05:25;41.85;;;13.60;;
36373;SDS011;22399;51.346;12.372;2024-03-06T10:07:55;44.05;;;14.52;;
36373;SDS011;22399;51.346;12.372;2024-03-06T10:10:27;39.38;;;13.77;;
36373;SDS011;22399;51.346;12.372;2024-03-06T10:12:55;39.15;;;13.07;;
36373;SDS011;22399;51.346;12.372;2024-03-06T10:15:27;36.58;;;13.30;;
36373;SDS011;22399;51.346;12.372;2024-03-06T10:20:40;38.65;;;12.65;;
36373;SDS011;22399;51.346;12.372;2024-03-06T10:23:11;42.60;;;12.88;;
36373;SDS011;22399;51.346;12.372;2024-03-06T10:25:42;37.65;;;13.32;;
36373;SDS011;22399;51.346;12.372;2024-03-06T10:28:12;40.85;;;13.30;;
36373;SDS011;22399;51.346;12.372;2024-03-06T10:30:41;45.97;;;13.80;;
36373;SDS011;22399;51.346;12.372;2024-03-06T10:33:10;46.03;;;14.73;;
36373;SDS011;22399;51.346;12.372;2024-03-06T10:35:40;37.80;;;13.38;;
36373;SDS011;22399;51.346;12.372;2024-03-06T10:38:10;45.65;;;13.63;;
36373;SDS011;22399;51.346;12.372;2024-03-06T10:40:40;38.13;;;11.70;;
36373;SDS011;22399;51.346;12.372;2024-03-06T10:43:11;43.35;;;12.65;;
36373;SDS011;22399;51.346;12.372;2024-03-06T10:45:40;35.67;;;12.75;;
36373;SDS011;22399;51.346;12.372;2024-03-06T10:48:13;40.03;;;13.73;;
36373;SDS011;22399;51.346;12.372;2024-03-06T10:50:43;50.33;;;13.60;;
36373;SDS011;22399;51.346;12.372;2024-03-06T10:53:13;44.33;;;12.52;;
36373;SDS011;22399;51.346;12.372;2024-03-06T10:55:50;34.25;;;12.13;;
36373;SDS011;22399;51.346;12.372;2024-03-06T10:58:20;41.70;;;12.63;;
36373;SDS011;22399;51.346;12.372;2024-03-06T11:00:48;42.47;;;14.07;;
36373;SDS011;22399;51.346;12.372;2024-03-06T11:03:18;48.65;;;13.32;;
36373;SDS011;22399;51.346;12.372;2024-03-06T11:05:47;36.95;;;13.80;;
36373;SDS011;22399;51.346;12.372;2024-03-06T11:08:19;37.53;;;12.52;;
36373;SDS011;22399;51.346;12.372;2024-03-06T11:10:49;41.85;;;13.10;;
36373;SDS011;22399;51.346;12.372;2024-03-06T11:13:22;34.05;;;11.63;;
36373;SDS011;22399;51.346;12.372;2024-03-06T11:15:52;46.22;;;13.32;;
36373;SDS011;22399;51.346;12.372;2024-03-06T11:18:45;44.67;;;13.68;;
36373;SDS011;22399;51.346;12.372;2024-03-06T11:21:29;43.25;;;14.20;;
36373;SDS011;22399;51.346;12.372;2024-03-06T11:26:59;32.63;;;11.38;;
36373;SDS011;22399;51.346;12.372;2024-03-06T11:29:29;47.75;;;12.73;;
36373;SDS011;22399;51.346;12.372;2024-03-06T11:32:17;29.42;;;9.90;;
36373;SDS011;22399;51.346;12.372;2024-03-06T11:34:46;38.05;;;10.38;;
36373;SDS011;22399;51.346;12.372;2024-03-06T11:37:14;32.92;;;11.77;;
36373;SDS011;22399;51.346;12.372;2024-03-06T11:39:49;39.30;;;11.77;;
36373;SDS011;22399;51.346;12.372;2024-03-06T11:42:32;35.88;;;12.05;;
36373;SDS011;22399;51.346;12.372;2024-03-06T11:45:12;27.70;;;10.25;;
36373;SDS011;22399;51.346;12.372;2024-03-06T11:47:56;30.98;;;10.63;;
36373;SDS011;22399;51.346;12.372;2024-03-06T11:50:26;31.88;;;10.85;;
36373;SDS011;22399;51.346;12.372;2024-03-06T11:52:56;34.13;;;11.82;;
36373;SDS011;22399;51.346;12.372;2024-03-06T11:55:25;41.85;;;12.40;;
36373;SDS011;22399;51.346;12.372;2024-03-06T11:57:55;36.38;;;11.40;;
36373;SDS011;22399;51.346;12.372;2024-03-06T12:00:23;30.45;;;10.23;;
36373;SDS011;22399;51.346;12.372;2024-03-06T12:02:52;35.90;;;11.85;;
36373;SDS011;22399;51.346;12.372;2024-03-06T12:05:21;27.65;;;10.65;;
36373;SDS011;22399;51.346;12.372;2024-03-06T12:07:51;28.90;;;10.68;;
36373;SDS011;22399;51.346;12.372;2024-03-06T12:10:20;29.30;;;10.60;;
36373;SDS011;22399;51.346;12.372;2024-03-06T12:12:49;31.70;;;10.77;;
36373;SDS011;22399;51.346;12.372;2024-03-06T12:15:18;37.92;;;12.93;;
36373;SDS011;22399;51.346;12.372;2024-03-06T12:17:47;31.10;;;10.95;;
36373;SDS011;22399;51.346;12.372;2024-03-06T12:20:17;32.78;;;11.57;;
36373;SDS011;22399;51.346;12.372;2024-03-06T12:22:48;40.45;;;12.07;;
36373;SDS011;22399;51.346;12.372;2024-03-06T12:25:17;24.20;;;9.70;;
36373;SDS011;22399;51.346;12.372;2024-03-06T12:27:47;26.63;;;9.52;;
36373;SDS011;22399;51.346;12.372;2024-03-06T12:30:16;32.75;;;9.90;;
36373;SDS011;22399;51.346;12.372;2024-03-06T12:32:55;28.13;;;10.07;;
36373;SDS011;22399;51.346;12.372;2024-03-06T12:35:25;26.45;;;10.38;;
36373;SDS011;22399;51.346;12.372;2024-03-06T12:37:54;31.00;;;10.27;;
36373;SDS011;22399;51.346;12.372;2024-03-06T12:40:22;30.25;;;10.23;;
36373;SDS011;22399;51.346;12.372;2024-03-06T12:42:51;34.33;;;9.63;;
36373;SDS011;22399;51.346;12.372;2024-03-06T12:45:21;31.40;;;9.50;;
36373;SDS011;22399;51.346;12.372;2024-03-06T12:47:49;31.20;;;11.13;;
36373;SDS011;22399;51.346;12.372;2024-03-06T12:50:18;26.15;;;10.82;;
36373;SDS011;22399;51.346;12.372;2024-03-06T12:52:47;26.73;;;9.32;;
36373;SDS011;22399;51.346;12.372;2024-03-06T12:55:15;30.75;;;10.70;;
36373;SDS011;22399;51.346;12.372;2024-03-06T12:57:43;22.48;;;9.20;;
36373;SDS011;22399;51.346;12.372;2024-03-06T13:00:13;30.95;;;10.35;;
36373;SDS011;22399;51.346;12.372;2024-03-06T13:02:44;26.90;;;10.70;;
36373;SDS011;22399;51.346;12.372;2024-03-06T13:05:13;25.13;;;10.20;;
36373;SDS011;22399;51.346;12.372;2024-03-06T13:07:42;32.40;;;10.70;;
36373;SDS011;22399;51.346;12.372;2024-03-06T13:10:11;37.05;;;11.02;;
36373;SDS011;22399;51.346;12.372;2024-03-06T13:12:39;24.05;;;10.27;;
36373;SDS011;22399;51.346;12.372;2024-03-06T13:15:08;29.98;;;9.18;;
36373;SDS011;22399;51.346;12.372;2024-03-06T13:17:37;42.35;;;11.55;;
36373;SDS011;22399;51.346;12.372;2024-03-06T13:20:08;31.88;;;10.40;;
36373;SDS011;22399;51.346;12.372;2024-03-06T13:22:38;37.78;;;10.55;;
36373;SDS011;22399;51.346;12.372;2024-03-06T13:25:07;25.38;;;9.90;;
36373;SDS011;22399;51.346;12.372;2024-03-06T13:27:36;25.30;;;8.82;;
36373;SDS011;22399;51.346;12.372;2024-03-06T13:30:05;38.20;;;8.32;;
36373;SDS011;22399;51.346;12.372;2024-03-06T13:32:34;23.33;;;8.68;;
36373;SDS011;22399;51.346;12.372;2024-03-06T13:35:03;29.13;;;9.57;;
36373;SDS011;22399;51.346;12.372;2024-03-06T13:37:34;24.33;;;8.82;;
36373;SDS011;22399;51.346;12.372;2024-03-06T13:40:03;22.13;;;8.32;;
36373;SDS011;22399;51.346;12.372;2024-03-06T13:42:33;22.50;;;8.88;;
36373;SDS011;22399;51.346;12.372;2024-03-06T13:45:02;23.65;;;8.30;;
36373;SDS011;22399;51.346;12.372;2024-03-06T13:47:31;26.55;;;8.10;;
36373;SDS011;22399;51.346;12.372;2024-03-06T13:50:00;21.67;;;7.30;;
36373;SDS011;22399;51.346;12.372;2024-03-06T13:52:28;23.75;;;7.97;;
36373;SDS011;22399;51.346;12.372;2024-03-06T13:54:57;18.00;;;7.57;;
36373;SDS011;22399;51.346;12.372;2024-03-06T13:57:27;27.95;;;8.30;;
36373;SDS011;22399;51.346;12.372;2024-03-06T13:59:56;19.60;;;7.28;;
36373;SDS011;22399;51.346;12.372;2024-03-06T14:02:24;20.85;;;6.78;;
36373;SDS011;22399;51.346;12.372;2024-03-06T14:04:52;17.58;;;6.30;;
36373;SDS011;22399;51.346;12.372;2024-03-06T14:07:20;17.38;;;6.25;;
36373;SDS011;22399;51.346;12.372;2024-03-06T14:09:49;15.63;;;5.72;;
36373;SDS011;22399;51.346;12.372;2024-03-06T14:12:19;16.13;;;5.40;;
36373;SDS011;22399;51.346;12.372;2024-03-06T14:14:48;14.20;;;5.20;;
36373;SDS011;22399;51.346;12.372;2024-03-06T14:17:16;21.25;;;4.45;;
36373;SDS011;22399;51.346;12.372;2024-03-06T14:19:44;12.23;;;4.80;;
36373;SDS011;22399;51.346;12.372;2024-03-06T14:22:13;16.48;;;4.35;;
36373;SDS011;22399;51.346;12.372;2024-03-06T14:24:43;15.25;;;5.50;;
36373;SDS011;22399;51.346;12.372;2024-03-06T14:27:11;20.90;;;5.45;;
36373;SDS011;22399;51.346;12.372;2024-03-06T14:29:44;14.32;;;5.97;;
36373;SDS011;22399;51.346;12.372;2024-03-06T14:32:13;18.88;;;5.30;;
36373;SDS011;22399;51.346;12.372;2024-03-06T14:34:42;15.68;;;6.55;;
36373;SDS011;22399;51.346;12.372;2024-03-06T14:37:11;16.67;;;6.13;;
36373;SDS011;22399;51.346;12.372;2024-03-06T14:39:39;14.45;;;5.40;;
36373;SDS011;22399;51.346;12.372;2024-03-06T14:42:08;19.58;;;5.97;;
36373;SDS011;22399;51.346;12.372;2024-03-06T14:44:36;12.90;;;5.05;;